sensor_id;sensor_type;location;lat;lon;timestamp;P1;durP1;ratioP1;P2;durP2;ratioP2
45476;SDS011;31958;51.756;-2.556;2023-05-07T00:00:09;135.65;;;11.60;;
45476;SDS011;31958;51.756;-2.556;2023-05-07T00:02:36;108.47;;;12.55;;
45476;SDS011;31958;51.756;-2.556;2023-05-07T00:05:02;94.15;;;11.00;;
45476;SDS011;31958;51.756;-2.556;2023-05-07T00:07:28;125.88;;;11.43;;
45476;SDS011;31958;51.756;-2.556;2023-05-07T00:09:53;88.90;;;10.43;;
45476;SDS011;31958;51.756;-2.556;2023-05-07T00:12:18;55.30;;;10.98;;
45476;SDS011;31958;51.756;-2.556;2023-05-07T00:14:44;36.30;;;10.98;;
45476;SDS011;31958;51.756;-2.556;2023-05-07T00:17:10;31.20;;;11.50;;
45476;SDS011;31958;51.756;-2.556;2023-05-07T00:19:35;42.88;;;11.18;;
45476;SDS011;31958;51.756;-2.556;2023-05-07T00:22:01;38.85;;;12.18;;
45476;SDS011;31958;51.756;-2.556;2023-05-07T00:24:26;43.38;;;11.50;;
45476;SDS011;31958;51.756;-2.556;2023-05-07T00:26:51;190.02;;;16.15;;
45476;SDS011;31958;51.756;-2.556;2023-05-07T00:29:17;128.20;;;10.35;;
45476;SDS011;31958;51.756;-2.556;2023-05-07T00:31:43;121.63;;;11.15;;
45476;SDS011;31958;51.756;-2.556;2023-05-07T00:34:08;56.20;;;9.85;;
45476;SDS011;31958;51.756;-2.556;2023-05-07T00:36:34;154.48;;;13.25;;
45476;SDS011;31958;51.756;-2.556;2023-05-07T00:38:59;72.75;;;10.82;;
45476;SDS011;31958;51.756;-2.556;2023-05-07T00:41:27;57.75;;;9.90;;
45476;SDS011;31958;51.756;-2.556;2023-05-07T00:43:52;65.60;;;10.23;;
45476;SDS011;31958;51.756;-2.556;2023-05-07T00:46:19;106.65;;;10.82;;
45476;SDS011;31958;51.756;-2.556;2023-05-07T00:48:45;64.90;;;10.82;;
45476;SDS011;31958;51.756;-2.556;2023-05-07T00:51:10;77.25;;;9.40;;
45476;SDS011;31958;51.756;-2.556;2023-05-07T00:53:36;106.30;;;10.57;;
45476;SDS011;31958;51.756;-2.556;2023-05-07T00:56:02;81.10;;;10.20;;
45476;SDS011;31958;51.756;-2.556;2023-05-07T00:58:28;127.78;;;11.45;;
45476;SDS011;31958;51.756;-2.556;2023-05-07T01:00:53;57.30;;;9.23;;
45476;SDS011;31958;51.756;-2.556;2023-05-07T01:03:20;76.60;;;10.02;;
45476;SDS011;31958;51.756;-2.556;2023-05-07T01:05:46;35.72;;;7.97;;
45476;SDS011;31958;51.756;-2.556;2023-05-07T01:08:13;43.13;;;8.80;;
45476;SDS011;31958;51.756;-2.556;2023-05-07T01:10:39;44.22;;;8.98;;
45476;SDS011;31958;51.756;-2.556;2023-05-07T01:13:08;56.30;;;8.90;;
45476;SDS011;31958;51.756;-2.556;2023-05-07T01:15:35;71.53;;;9.70;;
45476;SDS011;31958;51.756;-2.556;2023-05-07T01:18:00;38.33;;;8.18;;
45476;SDS011;31958;51.756;-2.556;2023-05-07T01:20:26;26.38;;;7.78;;
45476;SDS011;31958;51.756;-2.556;2023-05-07T01:22:52;18.77;;;7.90;;
45476;SDS011;31958;51.756;-2.556;2023-05-07T01:25:18;30.92;;;7.38;;
45476;SDS011;31958;51.756;-2.556;2023-05-07T01:27:44;23.92;;;7.25;;
45476;SDS011;31958;51.756;-2.556;2023-05-07T01:30:10;26.58;;;7.28;;
45476;SDS011;31958;51.756;-2.556;2023-05-07T01:32:37;18.90;;;6.55;;
45476;SDS011;31958;51.756;-2.556;2023-05-07T01:35:07;33.63;;;7.03;;
45476;SDS011;31958;51.756;-2.556;2023-05-07T01:37:35;14.48;;;6.47;;
45476;SDS011;31958;51.756;-2.556;2023-05-07T01:40:01;15.45;;;5.65;;
45476;SDS011;31958;51.756;-2.556;2023-05-07T01:42:27;37.58;;;6.15;;
45476;SDS011;31958;51.756;-2.556;2023-05-07T01:44:53;55.60;;;6.40;;
45476;SDS011;31958;51.756;-2.556;2023-05-07T01:47:19;35.33;;;5.47;;
45476;SDS011;31958;51.756;-2.556;2023-05-07T01:49:45;31.35;;;5.18;;
45476;SDS011;31958;51.756;-2.556;2023-05-07T01:52:11;36.22;;;5.38;;
45476;SDS011;31958;51.756;-2.556;2023-05-07T01:54:37;21.30;;;5.40;;
45476;SDS011;31958;51.756;-2.556;2023-05-07T01:57:03;26.30;;;5.50;;
45476;SDS011;31958;51.756;-2.556;2023-05-07T01:59:28;18.15;;;5.10;;
45476;SDS011;31958;51.756;-2.556;2023-05-07T02:01:54;13.85;;;4.53;;
45476;SDS011;31958;51.756;-2.556;2023-05-07T02:04:19;15.30;;;4.70;;
45476;SDS011;31958;51.756;-2.556;2023-05-07T02:06:44;9.80;;;4.07;;
45476;SDS011;31958;51.756;-2.556;2023-05-07T02:09:10;10.43;;;4.10;;
45476;SDS011;31958;51.756;-2.556;2023-05-07T02:11:36;26.58;;;4.32;;
45476;SDS011;31958;51.756;-2.556;2023-05-07T02:14:01;19.33;;;3.83;;
45476;SDS011;31958;51.756;-2.556;2023-05-07T02:16:26;16.30;;;4.40;;
45476;SDS011;31958;51.756;-2.556;2023-05-07T02:18:52;12.90;;;4.20;;
45476;SDS011;31958;51.756;-2.556;2023-05-07T02:21:17;6.05;;;4.00;;
45476;SDS011;31958;51.756;-2.556;2023-05-07T02:23:42;20.17;;;4.28;;
45476;SDS011;31958;51.756;-2.556;2023-05-07T02:26:08;11.05;;;3.47;;
45476;SDS011;31958;51.756;-2.556;2023-05-07T02:28:33;21.42;;;3.15;;
45476;SDS011;31958;51.756;-2.556;2023-05-07T02:31:02;27.58;;;3.50;;
45476;SDS011;31958;51.756;-2.556;2023-05-07T02:33:28;13.57;;;3.42;;
45476;SDS011;31958;51.756;-2.556;2023-05-07T02:35:53;22.75;;;3.45;;
45476;SDS011;31958;51.756;-2.556;2023-05-07T02:38:18;49.40;;;4.05;;
45476;SDS011;31958;51.756;-2.556;2023-05-07T02:40:44;28.63;;;3.20;;
45476;SDS011;31958;51.756;-2.556;2023-05-07T02:43:09;23.40;;;3.80;;
45476;SDS011;31958;51.756;-2.556;2023-05-07T02:45:35;5.43;;;3.75;;
45476;SDS011;31958;51.756;-2.556;2023-05-07T02:48:02;21.52;;;3.28;;
45476;SDS011;31958;51.756;-2.556;2023-05-07T02:50:28;63.00;;;4.57;;
45476;SDS011;31958;51.756;-2.556;2023-05-07T02:52:53;32.55;;;3.88;;
45476;SDS011;31958;51.756;-2.556;2023-05-07T02:55:19;39.45;;;3.47;;
45476;SDS011;31958;51.756;-2.556;2023-05-07T02:57:44;83.05;;;4.53;;
45476;SDS011;31958;51.756;-2.556;2023-05-07T03:00:10;86.68;;;4.35;;
45476;SDS011;31958;51.756;-2.556;2023-05-07T03:02:39;56.28;;;3.35;;
45476;SDS011;31958;51.756;-2.556;2023-05-07T03:05:05;54.70;;;3.55;;
45476;SDS011;31958;51.756;-2.556;2023-05-07T03:07:31;52.63;;;3.20;;
45476;SDS011;31958;51.756;-2.556;2023-05-07T03:09:57;59.75;;;3.28;;
45476;SDS011;31958;51.756;-2.556;2023-05-07T03:12:22;67.22;;;3.60;;
45476;SDS011;31958;51.756;-2.556;2023-05-07T03:14:47;64.28;;;3.60;;
45476;SDS011;31958;51.756;-2.556;2023-05-07T03:17:13;35.22;;;2.80;;
45476;SDS011;31958;51.756;-2.556;2023-05-07T03:19:38;27.90;;;2.85;;
45476;SDS011;31958;51.756;-2.556;2023-05-07T03:22:03;13.40;;;2.72;;
45476;SDS011;31958;51.756;-2.556;2023-05-07T03:24:29;10.27;;;2.70;;
45476;SDS011;31958;51.756;-2.556;2023-05-07T03:26:54;51.70;;;3.15;;
45476;SDS011;31958;51.756;-2.556;2023-05-07T03:29:20;66.05;;;3.17;;
45476;SDS011;31958;51.756;-2.556;2023-05-07T03:31:45;48.83;;;2.53;;
45476;SDS011;31958;51.756;-2.556;2023-05-07T03:34:11;13.43;;;2.03;;
45476;SDS011;31958;51.756;-2.556;2023-05-07T03:36:36;36.63;;;2.25;;
45476;SDS011;31958;51.756;-2.556;2023-05-07T03:39:01;41.55;;;2.17;;
45476;SDS011;31958;51.756;-2.556;2023-05-07T03:41:27;15.07;;;1.95;;
45476;SDS011;31958;51.756;-2.556;2023-05-07T03:43:52;25.45;;;2.00;;
45476;SDS011;31958;51.756;-2.556;2023-05-07T03:46:18;15.55;;;1.75;;
45476;SDS011;31958;51.756;-2.556;2023-05-07T03:48:43;9.88;;;1.83;;
45476;SDS011;31958;51.756;-2.556;2023-05-07T03:51:08;11.10;;;1.67;;
45476;SDS011;31958;51.756;-2.556;2023-05-07T03:53:34;31.30;;;2.00;;
45476;SDS011;31958;51.756;-2.556;2023-05-07T03:56:00;19.88;;;2.03;;
45476;SDS011;31958;51.756;-2.556;2023-05-07T03:58:25;14.15;;;1.58;;
45476;SDS011;31958;51.756;-2.556;2023-05-07T04:00:51;18.08;;;1.88;;
45476;SDS011;31958;51.756;-2.556;2023-05-07T04:03:16;22.45;;;1.88;;
45476;SDS011;31958;51.756;-2.556;2023-05-07T04:05:42;20.17;;;1.77;;
45476;SDS011;31958;51.756;-2.556;2023-05-07T04:08:07;9.43;;;1.95;;
45476;SDS011;31958;51.756;-2.556;2023-05-07T04:10:32;13.60;;;1.75;;
45476;SDS011;31958;51.756;-2.556;2023-05-07T04:12:58;5.07;;;1.77;;
45476;SDS011;31958;51.756;-2.556;2023-05-07T04:15:23;3.80;;;2.20;;
45476;SDS011;31958;51.756;-2.556;2023-05-07T04:17:49;7.10;;;2.00;;
45476;SDS011;31958;51.756;-2.556;2023-05-07T04:20:15;4.22;;;2.17;;
45476;SDS011;31958;51.756;-2.556;2023-05-07T04:22:41;9.60;;;1.80;;
45476;SDS011;31958;51.756;-2.556;2023-05-07T04:25:07;6.60;;;1.80;;
45476;SDS011;31958;51.756;-2.556;2023-05-07T04:27:34;2.55;;;1.48;;
45476;SDS011;31958;51.756;-2.556;2023-05-07T04:29:59;2.90;;;1.52;;
45476;SDS011;31958;51.756;-2.556;2023-05-07T04:32:25;3.63;;;1.70;;
45476;SDS011;31958;51.756;-2.556;2023-05-07T04:34:51;5.25;;;1.23;;
45476;SDS011;31958;51.756;-2.556;2023-05-07T04:37:16;7.45;;;1.50;;
45476;SDS011;31958;51.756;-2.556;2023-05-07T04:39:42;5.78;;;1.30;;
45476;SDS011;31958;51.756;-2.556;2023-05-07T04:42:07;8.98;;;1.33;;
45476;SDS011;31958;51.756;-2.556;2023-05-07T04:44:34;2.40;;;1.20;;
45476;SDS011;31958;51.756;-2.556;2023-05-07T04:47:00;3.25;;;1.50;;
45476;SDS011;31958;51.756;-2.556;2023-05-07T04:49:25;38.65;;;2.75;;
45476;SDS011;31958;51.756;-2.556;2023-05-07T04:51:51;16.55;;;1.48;;
45476;SDS011;31958;51.756;-2.556;2023-05-07T04:54:16;13.23;;;1.40;;
45476;SDS011;31958;51.756;-2.556;2023-05-07T04:56:41;12.63;;;1.60;;
45476;SDS011;31958;51.756;-2.556;2023-05-07T04:59:07;10.13;;;1.80;;
45476;SDS011;31958;51.756;-2.556;2023-05-07T05:01:32;17.55;;;1.77;;
45476;SDS011;31958;51.756;-2.556;2023-05-07T05:03:58;4.53;;;1.60;;
45476;SDS011;31958;51.756;-2.556;2023-05-07T05:06:25;8.05;;;1.30;;
45476;SDS011;31958;51.756;-2.556;2023-05-07T05:08:50;8.57;;;1.10;;
45476;SDS011;31958;51.756;-2.556;2023-05-07T05:11:15;5.10;;;1.30;;
45476;SDS011;31958;51.756;-2.556;2023-05-07T05:13:41;16.80;;;1.90;;
45476;SDS011;31958;51.756;-2.556;2023-05-07T05:16:06;17.08;;;1.42;;
45476;SDS011;31958;51.756;-2.556;2023-05-07T05:18:32;11.18;;;1.40;;
45476;SDS011;31958;51.756;-2.556;2023-05-07T05:20:57;33.72;;;1.83;;
45476;SDS011;31958;51.756;-2.556;2023-05-07T05:23:23;38.90;;;1.75;;
45476;SDS011;31958;51.756;-2.556;2023-05-07T05:25:48;25.55;;;1.25;;
45476;SDS011;31958;51.756;-2.556;2023-05-07T05:28:13;18.15;;;1.40;;
45476;SDS011;31958;51.756;-2.556;2023-05-07T05:30:39;24.55;;;1.40;;
45476;SDS011;31958;51.756;-2.556;2023-05-07T05:33:04;22.45;;;1.50;;
45476;SDS011;31958;51.756;-2.556;2023-05-07T05:35:30;12.80;;;1.23;;
45476;SDS011;31958;51.756;-2.556;2023-05-07T05:37:55;16.95;;;1.48;;
45476;SDS011;31958;51.756;-2.556;2023-05-07T05:40:21;13.38;;;1.38;;
45476;SDS011;31958;51.756;-2.556;2023-05-07T05:42:46;2.97;;;1.00;;
45476;SDS011;31958;51.756;-2.556;2023-05-07T05:45:11;10.27;;;1.45;;
45476;SDS011;31958;51.756;-2.556;2023-05-07T05:47:37;1.83;;;1.10;;
45476;SDS011;31958;51.756;-2.556;2023-05-07T05:50:02;6.38;;;1.30;;
45476;SDS011;31958;51.756;-2.556;2023-05-07T05:52:28;3.20;;;1.30;;
45476;SDS011;31958;51.756;-2.556;2023-05-07T05:54:53;10.88;;;1.17;;
45476;SDS011;31958;51.756;-2.556;2023-05-07T05:57:19;15.40;;;1.25;;
45476;SDS011;31958;51.756;-2.556;2023-05-07T05:59:45;2.92;;;1.20;;
45476;SDS011;31958;51.756;-2.556;2023-05-07T06:02:11;5.82;;;1.23;;
45476;SDS011;31958;51.756;-2.556;2023-05-07T06:04:36;3.83;;;1.40;;
45476;SDS011;31958;51.756;-2.556;2023-05-07T06:07:02;1.98;;;1.00;;
45476;SDS011;31958;51.756;-2.556;2023-05-07T06:09:27;4.97;;;1.35;;
45476;SDS011;31958;51.756;-2.556;2023-05-07T06:11:53;6.78;;;1.83;;
45476;SDS011;31958;51.756;-2.556;2023-05-07T06:14:18;1.85;;;1.00;;
45476;SDS011;31958;51.756;-2.556;2023-05-07T06:16:43;5.28;;;1.13;;
45476;SDS011;31958;51.756;-2.556;2023-05-07T06:19:09;2.88;;;1.67;;
45476;SDS011;31958;51.756;-2.556;2023-05-07T06:21:34;5.30;;;1.35;;
45476;SDS011;31958;51.756;-2.556;2023-05-07T06:24:00;6.00;;;1.60;;
45476;SDS011;31958;51.756;-2.556;2023-05-07T06:26:25;7.53;;;1.40;;
45476;SDS011;31958;51.756;-2.556;2023-05-07T06:28:50;3.65;;;1.40;;
45476;SDS011;31958;51.756;-2.556;2023-05-07T06:31:17;5.45;;;1.45;;
45476;SDS011;31958;51.756;-2.556;2023-05-07T06:33:47;5.20;;;1.48;;
45476;SDS011;31958;51.756;-2.556;2023-05-07T06:36:13;1.98;;;1.10;;
45476;SDS011;31958;51.756;-2.556;2023-05-07T06:38:38;2.67;;;1.50;;
45476;SDS011;31958;51.756;-2.556;2023-05-07T06:41:05;3.60;;;1.15;;
45476;SDS011;31958;51.756;-2.556;2023-05-07T06:43:31;4.28;;;1.50;;
45476;SDS011;31958;51.756;-2.556;2023-05-07T06:45:56;4.03;;;1.40;;
45476;SDS011;31958;51.756;-2.556;2023-05-07T06:48:21;3.00;;;1.40;;
45476;SDS011;31958;51.756;-2.556;2023-05-07T06:50:47;5.03;;;1.50;;
45476;SDS011;31958;51.756;-2.556;2023-05-07T06:53:12;3.08;;;1.38;;
45476;SDS011;31958;51.756;-2.556;2023-05-07T06:55:37;7.28;;;1.42;;
45476;SDS011;31958;51.756;-2.556;2023-05-07T06:58:03;3.33;;;1.20;;
45476;SDS011;31958;51.756;-2.556;2023-05-07T07:00:28;2.90;;;1.00;;
45476;SDS011;31958;51.756;-2.556;2023-05-07T07:02:54;3.13;;;1.30;;
45476;SDS011;31958;51.756;-2.556;2023-05-07T07:05:20;3.40;;;1.50;;
45476;SDS011;31958;51.756;-2.556;2023-05-07T07:07:46;2.70;;;1.30;;
45476;SDS011;31958;51.756;-2.556;2023-05-07T07:10:20;2.88;;;1.33;;
45476;SDS011;31958;51.756;-2.556;2023-05-07T07:12:46;4.82;;;1.48;;
45476;SDS011;31958;51.756;-2.556;2023-05-07T07:15:12;5.25;;;1.35;;
45476;SDS011;31958;51.756;-2.556;2023-05-07T07:17:38;3.08;;;1.30;;
45476;SDS011;31958;51.756;-2.556;2023-05-07T07:20:04;3.33;;;1.30;;
45476;SDS011;31958;51.756;-2.556;2023-05-07T07:22:30;4.43;;;1.42;;
45476;SDS011;31958;51.756;-2.556;2023-05-07T07:24:56;3.67;;;1.25;;
45476;SDS011;31958;51.756;-2.556;2023-05-07T07:27:21;3.78;;;1.48;;
45476;SDS011;31958;51.756;-2.556;2023-05-07T07:29:46;3.60;;;1.40;;
45476;SDS011;31958;51.756;-2.556;2023-05-07T07:32:12;4.95;;;1.80;;
45476;SDS011;31958;51.756;-2.556;2023-05-07T07:34:37;4.63;;;1.40;;
45476;SDS011;31958;51.756;-2.556;2023-05-07T07:37:02;3.63;;;1.42;;
45476;SDS011;31958;51.756;-2.556;2023-05-07T07:39:31;3.88;;;1.48;;
45476;SDS011;31958;51.756;-2.556;2023-05-07T07:41:57;4.70;;;1.60;;
45476;SDS011;31958;51.756;-2.556;2023-05-07T07:44:22;3.45;;;1.58;;
45476;SDS011;31958;51.756;-2.556;2023-05-07T07:46:48;4.57;;;1.55;;
45476;SDS011;31958;51.756;-2.556;2023-05-07T07:49:13;6.10;;;1.85;;
45476;SDS011;31958;51.756;-2.556;2023-05-07T07:51:39;6.95;;;1.75;;
45476;SDS011;31958;51.756;-2.556;2023-05-07T07:54:05;5.90;;;1.77;;
45476;SDS011;31958;51.756;-2.556;2023-05-07T07:56:31;5.75;;;1.58;;
45476;SDS011;31958;51.756;-2.556;2023-05-07T07:58:58;4.15;;;1.40;;
45476;SDS011;31958;51.756;-2.556;2023-05-07T08:01:23;4.53;;;1.40;;
45476;SDS011;31958;51.756;-2.556;2023-05-07T08:03:49;5.90;;;1.60;;
45476;SDS011;31958;51.756;-2.556;2023-05-07T08:06:14;4.63;;;1.70;;
45476;SDS011;31958;51.756;-2.556;2023-05-07T08:08:40;4.40;;;1.58;;
45476;SDS011;31958;51.756;-2.556;2023-05-07T08:11:05;5.72;;;1.63;;
45476;SDS011;31958;51.756;-2.556;2023-05-07T08:13:31;4.47;;;1.70;;
45476;SDS011;31958;51.756;-2.556;2023-05-07T08:15:56;4.95;;;1.80;;
45476;SDS011;31958;51.756;-2.556;2023-05-07T08:18:21;4.18;;;1.42;;
45476;SDS011;31958;51.756;-2.556;2023-05-07T08:20:49;4.25;;;1.88;;
45476;SDS011;31958;51.756;-2.556;2023-05-07T08:23:14;4.70;;;1.65;;
45476;SDS011;31958;51.756;-2.556;2023-05-07T08:25:40;3.55;;;1.40;;
45476;SDS011;31958;51.756;-2.556;2023-05-07T08:28:07;5.03;;;1.63;;
45476;SDS011;31958;51.756;-2.556;2023-05-07T08:30:32;4.63;;;1.58;;
45476;SDS011;31958;51.756;-2.556;2023-05-07T08:32:58;5.63;;;1.48;;
45476;SDS011;31958;51.756;-2.556;2023-05-07T08:35:23;3.92;;;1.55;;
45476;SDS011;31958;51.756;-2.556;2023-05-07T08:37:50;4.88;;;1.48;;
45476;SDS011;31958;51.756;-2.556;2023-05-07T08:40:15;3.08;;;1.33;;
45476;SDS011;31958;51.756;-2.556;2023-05-07T08:42:41;7.00;;;1.70;;
45476;SDS011;31958;51.756;-2.556;2023-05-07T08:45:08;6.03;;;1.92;;
45476;SDS011;31958;51.756;-2.556;2023-05-07T08:47:38;5.50;;;2.22;;
45476;SDS011;31958;51.756;-2.556;2023-05-07T08:50:08;5.43;;;2.33;;
45476;SDS011;31958;51.756;-2.556;2023-05-07T08:52:34;7.30;;;2.25;;
45476;SDS011;31958;51.756;-2.556;2023-05-07T08:55:00;8.00;;;2.50;;
45476;SDS011;31958;51.756;-2.556;2023-05-07T08:57:27;5.60;;;2.00;;
45476;SDS011;31958;51.756;-2.556;2023-05-07T08:59:53;4.68;;;2.00;;
45476;SDS011;31958;51.756;-2.556;2023-05-07T09:02:18;5.82;;;2.40;;
45476;SDS011;31958;51.756;-2.556;2023-05-07T09:04:43;7.57;;;2.42;;
45476;SDS011;31958;51.756;-2.556;2023-05-07T09:07:09;5.05;;;2.65;;
45476;SDS011;31958;51.756;-2.556;2023-05-07T09:09:35;5.07;;;2.30;;
45476;SDS011;31958;51.756;-2.556;2023-05-07T09:12:00;6.20;;;2.55;;
45476;SDS011;31958;51.756;-2.556;2023-05-07T09:14:27;6.40;;;2.38;;
45476;SDS011;31958;51.756;-2.556;2023-05-07T09:16:53;6.55;;;2.80;;
45476;SDS011;31958;51.756;-2.556;2023-05-07T09:19:25;9.10;;;2.70;;
45476;SDS011;31958;51.756;-2.556;2023-05-07T09:22:01;6.20;;;2.85;;
45476;SDS011;31958;51.756;-2.556;2023-05-07T09:24:27;8.18;;;3.10;;
45476;SDS011;31958;51.756;-2.556;2023-05-07T09:27:00;4.32;;;2.70;;
45476;SDS011;31958;51.756;-2.556;2023-05-07T09:29:26;5.03;;;2.38;;
45476;SDS011;31958;51.756;-2.556;2023-05-07T09:31:54;5.50;;;2.70;;
45476;SDS011;31958;51.756;-2.556;2023-05-07T09:34:20;5.25;;;2.47;;
45476;SDS011;31958;51.756;-2.556;2023-05-07T09:36:45;4.03;;;2.20;;
45476;SDS011;31958;51.756;-2.556;2023-05-07T09:39:11;4.50;;;2.25;;
45476;SDS011;31958;51.756;-2.556;2023-05-07T09:41:43;5.95;;;2.65;;
45476;SDS011;31958;51.756;-2.556;2023-05-07T09:44:09;4.10;;;2.35;;
45476;SDS011;31958;51.756;-2.556;2023-05-07T09:46:34;7.80;;;2.42;;
45476;SDS011;31958;51.756;-2.556;2023-05-07T09:49:02;6.20;;;2.10;;
45476;SDS011;31958;51.756;-2.556;2023-05-07T09:51:33;7.72;;;2.13;;
45476;SDS011;31958;51.756;-2.556;2023-05-07T09:54:07;7.55;;;2.00;;
45476;SDS011;31958;51.756;-2.556;2023-05-07T09:56:32;4.53;;;1.88;;
45476;SDS011;31958;51.756;-2.556;2023-05-07T09:58:59;5.80;;;1.85;;
45476;SDS011;31958;51.756;-2.556;2023-05-07T10:01:25;5.72;;;1.98;;
45476;SDS011;31958;51.756;-2.556;2023-05-07T10:03:52;4.40;;;2.00;;
45476;SDS011;31958;51.756;-2.556;2023-05-07T10:06:19;4.95;;;2.17;;
45476;SDS011;31958;51.756;-2.556;2023-05-07T10:08:45;4.13;;;2.15;;
45476;SDS011;31958;51.756;-2.556;2023-05-07T10:11:11;4.75;;;2.10;;
45476;SDS011;31958;51.756;-2.556;2023-05-07T10:13:36;4.00;;;1.88;;
45476;SDS011;31958;51.756;-2.556;2023-05-07T10:16:06;5.60;;;2.55;;
45476;SDS011;31958;51.756;-2.556;2023-05-07T10:18:31;8.27;;;2.33;;
45476;SDS011;31958;51.756;-2.556;2023-05-07T10:23:33;6.60;;;2.03;;
45476;SDS011;31958;51.756;-2.556;2023-05-07T10:25:59;10.18;;;1.90;;
45476;SDS011;31958;51.756;-2.556;2023-05-07T10:28:30;6.38;;;1.98;;
45476;SDS011;31958;51.756;-2.556;2023-05-07T10:31:08;5.32;;;2.08;;
45476;SDS011;31958;51.756;-2.556;2023-05-07T10:33:55;4.32;;;1.92;;
45476;SDS011;31958;51.756;-2.556;2023-05-07T10:36:22;6.68;;;2.42;;
45476;SDS011;31958;51.756;-2.556;2023-05-07T10:38:47;3.95;;;1.80;;
45476;SDS011;31958;51.756;-2.556;2023-05-07T10:41:13;9.18;;;2.78;;
45476;SDS011;31958;51.756;-2.556;2023-05-07T10:46:16;3.85;;;1.50;;
45476;SDS011;31958;51.756;-2.556;2023-05-07T10:51:33;5.50;;;2.17;;
45476;SDS011;31958;51.756;-2.556;2023-05-07T10:56:37;6.18;;;1.90;;
45476;SDS011;31958;51.756;-2.556;2023-05-07T11:01:56;7.22;;;2.00;;
45476;SDS011;31958;51.756;-2.556;2023-05-07T11:04:23;8.07;;;2.28;;
45476;SDS011;31958;51.756;-2.556;2023-05-07T11:15:08;7.68;;;2.75;;
45476;SDS011;31958;51.756;-2.556;2023-05-07T11:17:35;6.15;;;2.53;;
45476;SDS011;31958;51.756;-2.556;2023-05-07T11:20:17;5.63;;;1.80;;
45476;SDS011;31958;51.756;-2.556;2023-05-07T11:22:43;9.15;;;2.60;;
45476;SDS011;31958;51.756;-2.556;2023-05-07T11:25:08;7.15;;;2.72;;
45476;SDS011;31958;51.756;-2.556;2023-05-07T11:27:34;6.30;;;2.15;;
45476;SDS011;31958;51.756;-2.556;2023-05-07T11:29:59;4.55;;;1.80;;
45476;SDS011;31958;51.756;-2.556;2023-05-07T11:32:28;5.88;;;1.80;;
45476;SDS011;31958;51.756;-2.556;2023-05-07T11:34:55;5.68;;;1.90;;
45476;SDS011;31958;51.756;-2.556;2023-05-07T11:37:23;8.23;;;1.83;;
45476;SDS011;31958;51.756;-2.556;2023-05-07T11:39:49;8.20;;;2.20;;
45476;SDS011;31958;51.756;-2.556;2023-05-07T11:42:29;8.40;;;2.40;;
45476;SDS011;31958;51.756;-2.556;2023-05-07T11:44:58;6.15;;;2.22;;
45476;SDS011;31958;51.756;-2.556;2023-05-07T11:47:24;5.55;;;1.80;;
45476;SDS011;31958;51.756;-2.556;2023-05-07T11:49:53;5.43;;;1.90;;
45476;SDS011;31958;51.756;-2.556;2023-05-07T11:52:20;3.95;;;1.58;;
45476;SDS011;31958;51.756;-2.556;2023-05-07T11:57:19;9.10;;;2.08;;
45476;SDS011;31958;51.756;-2.556;2023-05-07T11:59:45;7.03;;;1.73;;
45476;SDS011;31958;51.756;-2.556;2023-05-07T12:02:13;5.97;;;2.10;;
45476;SDS011;31958;51.756;-2.556;2023-05-07T12:04:39;6.05;;;1.92;;
45476;SDS011;31958;51.756;-2.556;2023-05-07T12:07:04;9.85;;;2.17;;
45476;SDS011;31958;51.756;-2.556;2023-05-07T12:09:32;7.75;;;1.90;;
45476;SDS011;31958;51.756;-2.556;2023-05-07T12:12:02;6.10;;;2.28;;
45476;SDS011;31958;51.756;-2.556;2023-05-07T12:14:28;4.93;;;1.95;;
45476;SDS011;31958;51.756;-2.556;2023-05-07T12:16:54;3.78;;;1.55;;
45476;SDS011;31958;51.756;-2.556;2023-05-07T12:19:19;3.58;;;1.60;;
45476;SDS011;31958;51.756;-2.556;2023-05-07T12:21:45;7.13;;;1.75;;
45476;SDS011;31958;51.756;-2.556;2023-05-07T12:24:11;4.45;;;1.80;;
45476;SDS011;31958;51.756;-2.556;2023-05-07T12:26:39;3.25;;;1.40;;
45476;SDS011;31958;51.756;-2.556;2023-05-07T12:29:05;5.20;;;1.88;;
45476;SDS011;31958;51.756;-2.556;2023-05-07T12:31:31;4.10;;;1.70;;
45476;SDS011;31958;51.756;-2.556;2023-05-07T12:33:56;3.45;;;1.27;;
45476;SDS011;31958;51.756;-2.556;2023-05-07T12:36:22;6.28;;;1.55;;
45476;SDS011;31958;51.756;-2.556;2023-05-07T12:38:48;2.50;;;1.38;;
45476;SDS011;31958;51.756;-2.556;2023-05-07T12:41:15;8.63;;;1.70;;
45476;SDS011;31958;51.756;-2.556;2023-05-07T12:43:42;4.07;;;1.63;;
45476;SDS011;31958;51.756;-2.556;2023-05-07T12:46:09;2.90;;;1.38;;
45476;SDS011;31958;51.756;-2.556;2023-05-07T12:48:36;3.95;;;1.50;;
45476;SDS011;31958;51.756;-2.556;2023-05-07T12:51:02;5.50;;;1.40;;
45476;SDS011;31958;51.756;-2.556;2023-05-07T12:53:28;6.07;;;1.77;;
45476;SDS011;31958;51.756;-2.556;2023-05-07T12:55:55;5.97;;;1.80;;
45476;SDS011;31958;51.756;-2.556;2023-05-07T13:00:51;4.57;;;1.73;;
45476;SDS011;31958;51.756;-2.556;2023-05-07T13:03:20;5.70;;;3.10;;
45476;SDS011;31958;51.756;-2.556;2023-05-07T13:05:50;5.63;;;2.10;;
45476;SDS011;31958;51.756;-2.556;2023-05-07T13:08:26;7.53;;;2.53;;
45476;SDS011;31958;51.756;-2.556;2023-05-07T13:10:56;8.02;;;2.55;;
45476;SDS011;31958;51.756;-2.556;2023-05-07T13:13:23;4.43;;;2.08;;
45476;SDS011;31958;51.756;-2.556;2023-05-07T13:15:48;5.82;;;3.03;;
45476;SDS011;31958;51.756;-2.556;2023-05-07T13:18:14;5.43;;;3.08;;
45476;SDS011;31958;51.756;-2.556;2023-05-07T13:20:39;10.80;;;4.45;;
45476;SDS011;31958;51.756;-2.556;2023-05-07T13:23:05;9.15;;;3.80;;
45476;SDS011;31958;51.756;-2.556;2023-05-07T13:25:31;9.38;;;4.43;;
45476;SDS011;31958;51.756;-2.556;2023-05-07T13:27:56;9.60;;;4.35;;
45476;SDS011;31958;51.756;-2.556;2023-05-07T13:30:22;12.25;;;3.95;;
45476;SDS011;31958;51.756;-2.556;2023-05-07T13:32:48;7.13;;;4.03;;
45476;SDS011;31958;51.756;-2.556;2023-05-07T13:35:14;6.00;;;2.42;;
45476;SDS011;31958;51.756;-2.556;2023-05-07T13:37:39;5.82;;;2.45;;
45476;SDS011;31958;51.756;-2.556;2023-05-07T13:40:05;3.38;;;1.52;;
45476;SDS011;31958;51.756;-2.556;2023-05-07T13:42:32;3.35;;;1.50;;
45476;SDS011;31958;51.756;-2.556;2023-05-07T13:44:58;3.85;;;1.65;;
45476;SDS011;31958;51.756;-2.556;2023-05-07T13:47:23;4.30;;;1.70;;
45476;SDS011;31958;51.756;-2.556;2023-05-07T13:49:49;5.45;;;1.98;;
45476;SDS011;31958;51.756;-2.556;2023-05-07T13:52:17;6.65;;;1.73;;
45476;SDS011;31958;51.756;-2.556;2023-05-07T13:54:44;5.53;;;1.70;;
45476;SDS011;31958;51.756;-2.556;2023-05-07T13:57:09;6.00;;;1.73;;
45476;SDS011;31958;51.756;-2.556;2023-05-07T13:59:34;6.95;;;1.63;;
45476;SDS011;31958;51.756;-2.556;2023-05-07T14:02:00;5.85;;;1.75;;
45476;SDS011;31958;51.756;-2.556;2023-05-07T14:04:25;6.47;;;2.03;;
45476;SDS011;31958;51.756;-2.556;2023-05-07T14:06:51;7.18;;;2.15;;
45476;SDS011;31958;51.756;-2.556;2023-05-07T14:09:16;6.30;;;2.28;;
45476;SDS011;31958;51.756;-2.556;2023-05-07T14:11:42;6.78;;;1.83;;
45476;SDS011;31958;51.756;-2.556;2023-05-07T14:14:07;5.40;;;1.92;;
45476;SDS011;31958;51.756;-2.556;2023-05-07T14:16:35;8.57;;;2.00;;
45476;SDS011;31958;51.756;-2.556;2023-05-07T14:19:01;6.65;;;2.25;;
45476;SDS011;31958;51.756;-2.556;2023-05-07T14:21:26;6.30;;;2.08;;
45476;SDS011;31958;51.756;-2.556;2023-05-07T14:23:51;7.47;;;2.60;;
45476;SDS011;31958;51.756;-2.556;2023-05-07T14:26:17;6.25;;;2.88;;
45476;SDS011;31958;51.756;-2.556;2023-05-07T14:28:42;7.72;;;3.30;;
45476;SDS011;31958;51.756;-2.556;2023-05-07T14:31:11;6.43;;;3.92;;
45476;SDS011;31958;51.756;-2.556;2023-05-07T14:33:36;9.02;;;4.90;;
45476;SDS011;31958;51.756;-2.556;2023-05-07T14:36:02;10.75;;;4.97;;
45476;SDS011;31958;51.756;-2.556;2023-05-07T14:38:28;8.10;;;4.45;;
45476;SDS011;31958;51.756;-2.556;2023-05-07T14:40:54;9.30;;;4.53;;
45476;SDS011;31958;51.756;-2.556;2023-05-07T14:43:21;11.05;;;4.60;;
45476;SDS011;31958;51.756;-2.556;2023-05-07T14:45:46;10.82;;;4.47;;
45476;SDS011;31958;51.756;-2.556;2023-05-07T14:48:12;10.68;;;4.53;;